sensor_id;sensor_type;location;lat;lon;timestamp;temperature;humidity
47168;DHT22;32931;47.778;17.806;2024-01-30T00:00:16;2.20;99.90
47168;DHT22;32931;47.778;17.806;2024-01-30T00:02:42;2.20;99.90
47168;DHT22;32931;47.778;17.806;2024-01-30T00:05:09;2.20;99.90
47168;DHT22;32931;47.778;17.806;2024-01-30T00:07:35;2.30;99.90
47168;DHT22;32931;47.778;17.806;2024-01-30T00:10:01;2.30;99.90
47168;DHT22;32931;47.778;17.806;2024-01-30T00:12:27;2.30;99.90
47168;DHT22;32931;47.778;17.806;2024-01-30T00:14:53;2.30;99.90
47168;DHT22;32931;47.778;17.806;2024-01-30T00:17:20;2.30;99.90
47168;DHT22;32931;47.778;17.806;2024-01-30T00:19:46;2.30;99.90
47168;DHT22;32931;47.778;17.806;2024-01-30T00:22:12;2.30;99.90
47168;DHT22;32931;47.778;17.806;2024-01-30T00:24:39;2.30;99.90
47168;DHT22;32931;47.778;17.806;2024-01-30T00:27:05;2.30;99.90
47168;DHT22;32931;47.778;17.806;2024-01-30T00:29:31;2.20;99.90
47168;DHT22;32931;47.778;17.806;2024-01-30T00:31:59;2.20;99.90
47168;DHT22;32931;47.778;17.806;2024-01-30T00:34:26;2.20;99.90
47168;DHT22;32931;47.778;17.806;2024-01-30T00:36:52;2.20;99.90
47168;DHT22;32931;47.778;17.806;2024-01-30T00:39:18;2.20;99.90
47168;DHT22;32931;47.778;17.806;2024-01-30T00:41:45;2.20;99.90
47168;DHT22;32931;47.778;17.806;2024-01-30T00:44:11;2.20;99.90
47168;DHT22;32931;47.778;17.806;2024-01-30T00:46:37;2.20;99.90
47168;DHT22;32931;47.778;17.806;2024-01-30T00:49:03;2.20;99.90
47168;DHT22;32931;47.778;17.806;2024-01-30T00:51:29;2.10;99.90
47168;DHT22;32931;47.778;17.806;2024-01-30T00:53:55;2.10;99.90
47168;DHT22;32931;47.778;17.806;2024-01-30T00:56:22;2.00;99.90
47168;DHT22;32931;47.778;17.806;2024-01-30T00:58:49;2.00;99.90
47168;DHT22;32931;47.778;17.806;2024-01-30T01:01:15;2.00;99.90
47168;DHT22;32931;47.778;17.806;2024-01-30T01:03:41;2.00;99.90
47168;DHT22;32931;47.778;17.806;2024-01-30T01:06:09;2.00;99.90
47168;DHT22;32931;47.778;17.806;2024-01-30T01:08:36;2.00;99.90
47168;DHT22;32931;47.778;17.806;2024-01-30T01:11:02;2.10;99.90
47168;DHT22;32931;47.778;17.806;2024-01-30T01:13:29;2.10;99.90
47168;DHT22;32931;47.778;17.806;2024-01-30T01:15:55;2.10;99.90
47168;DHT22;32931;47.778;17.806;2024-01-30T01:18:21;2.10;99.90
47168;DHT22;32931;47.778;17.806;2024-01-30T01:20:47;2.10;99.90
47168;DHT22;32931;47.778;17.806;2024-01-30T01:23:13;2.10;99.90
47168;DHT22;32931;47.778;17.806;2024-01-30T01:25:40;2.10;99.90
47168;DHT22;32931;47.778;17.806;2024-01-30T01:28:06;2.10;99.90
47168;DHT22;32931;47.778;17.806;2024-01-30T01:30:32;2.10;99.90
47168;DHT22;32931;47.778;17.806;2024-01-30T01:32:58;2.10;99.90
47168;DHT22;32931;47.778;17.806;2024-01-30T01:35:27;2.10;99.90
47168;DHT22;32931;47.778;17.806;2024-01-30T01:37:54;2.10;99.90
47168;DHT22;32931;47.778;17.806;2024-01-30T01:40:26;2.10;99.90
47168;DHT22;32931;47.778;17.806;2024-01-30T01:42:53;2.10;99.90
47168;DHT22;32931;47.778;17.806;2024-01-30T01:45:20;2.10;99.90
47168;DHT22;32931;47.778;17.806;2024-01-30T01:47:51;2.10;99.90
47168;DHT22;32931;47.778;17.806;2024-01-30T01:50:18;2.00;99.90
47168;DHT22;32931;47.778;17.806;2024-01-30T01:52:46;2.00;99.90
47168;DHT22;32931;47.778;17.806;2024-01-30T01:55:13;2.00;99.90
47168;DHT22;32931;47.778;17.806;2024-01-30T01:57:41;2.00;99.90
47168;DHT22;32931;47.778;17.806;2024-01-30T02:00:08;2.00;99.90
47168;DHT22;32931;47.778;17.806;2024-01-30T02:02:36;2.00;99.90
47168;DHT22;32931;47.778;17.806;2024-01-30T02:05:03;2.00;99.90
47168;DHT22;32931;47.778;17.806;2024-01-30T02:07:30;2.00;99.90
47168;DHT22;32931;47.778;17.806;2024-01-30T02:09:56;1.90;99.90
47168;DHT22;32931;47.778;17.806;2024-01-30T02:12:22;1.90;99.90
47168;DHT22;32931;47.778;17.806;2024-01-30T02:14:49;1.90;99.90
47168;DHT22;32931;47.778;17.806;2024-01-30T02:17:16;1.90;99.90
47168;DHT22;32931;47.778;17.806;2024-01-30T02:19:42;1.90;99.90
47168;DHT22;32931;47.778;17.806;2024-01-30T02:22:09;1.90;99.90
47168;DHT22;32931;47.778;17.806;2024-01-30T02:24:35;1.90;99.90
47168;DHT22;32931;47.778;17.806;2024-01-30T02:27:02;1.90;99.90
47168;DHT22;32931;47.778;17.806;2024-01-30T02:29:28;1.90;99.90
47168;DHT22;32931;47.778;17.806;2024-01-30T02:31:54;1.90;99.90
47168;DHT22;32931;47.778;17.806;2024-01-30T02:34:20;1.80;99.90
47168;DHT22;32931;47.778;17.806;2024-01-30T02:36:47;1.80;99.90
47168;DHT22;32931;47.778;17.806;2024-01-30T02:39:13;1.80;99.90
47168;DHT22;32931;47.778;17.806;2024-01-30T02:41:39;1.70;99.90
47168;DHT22;32931;47.778;17.806;2024-01-30T02:44:05;1.70;99.90
47168;DHT22;32931;47.778;17.806;2024-01-30T02:46:31;1.70;99.90
47168;DHT22;32931;47.778;17.806;2024-01-30T02:48:57;1.70;99.90
47168;DHT22;32931;47.778;17.806;2024-01-30T02:51:23;1.70;99.90
47168;DHT22;32931;47.778;17.806;2024-01-30T02:53:49;1.60;99.90
47168;DHT22;32931;47.778;17.806;2024-01-30T02:56:15;1.70;99.90
47168;DHT22;32931;47.778;17.806;2024-01-30T02:58:42;1.60;99.90
47168;DHT22;32931;47.778;17.806;2024-01-30T03:01:08;1.60;99.90
47168;DHT22;32931;47.778;17.806;2024-01-30T03:03:34;1.60;99.90
47168;DHT22;32931;47.778;17.806;2024-01-30T03:06:01;1.60;99.90
47168;DHT22;32931;47.778;17.806;2024-01-30T03:08:28;1.70;99.90
47168;DHT22;32931;47.778;17.806;2024-01-30T03:10:54;1.70;99.90
47168;DHT22;32931;47.778;17.806;2024-01-30T03:13:21;1.70;99.90
47168;DHT22;32931;47.778;17.806;2024-01-30T03:15:49;1.70;99.90
47168;DHT22;32931;47.778;17.806;2024-01-30T03:18:15;1.70;99.90
47168;DHT22;32931;47.778;17.806;2024-01-30T03:20:41;1.70;99.90
47168;DHT22;32931;47.778;17.806;2024-01-30T03:23:07;1.70;99.90
47168;DHT22;32931;47.778;17.806;2024-01-30T03:25:33;1.70;99.90
47168;DHT22;32931;47.778;17.806;2024-01-30T03:27:59;1.70;99.90
47168;DHT22;32931;47.778;17.806;2024-01-30T03:30:25;1.70;99.90
47168;DHT22;32931;47.778;17.806;2024-01-30T03:32:52;1.70;99.90
47168;DHT22;32931;47.778;17.806;2024-01-30T03:35:19;1.70;99.90
47168;DHT22;32931;47.778;17.806;2024-01-30T03:37:45;1.70;99.90
47168;DHT22;32931;47.778;17.806;2024-01-30T03:40:12;1.70;99.90
47168;DHT22;32931;47.778;17.806;2024-01-30T03:42:38;1.70;99.90
47168;DHT22;32931;47.778;17.806;2024-01-30T03:45:04;1.70;99.90
47168;DHT22;32931;47.778;17.806;2024-01-30T03:47:30;1.70;99.90
47168;DHT22;32931;47.778;17.806;2024-01-30T03:49:57;1.70;99.90
47168;DHT22;32931;47.778;17.806;2024-01-30T03:52:23;1.60;99.90
47168;DHT22;32931;47.778;17.806;2024-01-30T03:54:49;1.60;99.90
47168;DHT22;32931;47.778;17.806;2024-01-30T03:57:15;1.60;99.90
47168;DHT22;32931;47.778;17.806;2024-01-30T03:59:42;1.60;99.90
47168;DHT22;32931;47.778;17.806;2024-01-30T04:02:10;1.50;99.90
47168;DHT22;32931;47.778;17.806;2024-01-30T04:04:37;1.50;99.90
47168;DHT22;32931;47.778;17.806;2024-01-30T04:07:03;1.40;99.90
47168;DHT22;32931;47.778;17.806;2024-01-30T04:09:29;1.40;99.90
47168;DHT22;32931;47.778;17.806;2024-01-30T04:11:55;1.40;99.90
47168;DHT22;32931;47.778;17.806;2024-01-30T04:14:21;1.40;99.90
47168;DHT22;32931;47.778;17.806;2024-01-30T04:16:47;1.40;99.90
47168;DHT22;32931;47.778;17.806;2024-01-30T04:19:14;1.40;99.90
47168;DHT22;32931;47.778;17.806;2024-01-30T04:21:40;1.30;99.90
47168;DHT22;32931;47.778;17.806;2024-01-30T04:24:06;1.30;99.90
47168;DHT22;32931;47.778;17.806;2024-01-30T04:26:32;1.30;99.90
47168;DHT22;32931;47.778;17.806;2024-01-30T04:28:59;1.30;99.90
47168;DHT22;32931;47.778;17.806;2024-01-30T04:31:25;1.30;99.90
47168;DHT22;32931;47.778;17.806;2024-01-30T04:33:51;1.20;99.90
47168;DHT22;32931;47.778;17.806;2024-01-30T04:36:17;1.20;99.90
47168;DHT22;32931;47.778;17.806;2024-01-30T04:38:43;1.20;99.90
47168;DHT22;32931;47.778;17.806;2024-01-30T04:41:09;1.20;99.90
47168;DHT22;32931;47.778;17.806;2024-01-30T04:43:35;1.20;99.90
47168;DHT22;32931;47.778;17.806;2024-01-30T04:46:01;1.20;99.90
47168;DHT22;32931;47.778;17.806;2024-01-30T04:48:28;1.20;99.90
47168;DHT22;32931;47.778;17.806;2024-01-30T04:50:54;1.10;99.90
47168;DHT22;32931;47.778;17.806;2024-01-30T04:53:21;1.10;99.90
47168;DHT22;32931;47.778;17.806;2024-01-30T04:55:48;1.10;99.90
47168;DHT22;32931;47.778;17.806;2024-01-30T04:58:14;1.10;99.90
47168;DHT22;32931;47.778;17.806;2024-01-30T05:00:40;1.10;99.90
47168;DHT22;32931;47.778;17.806;2024-01-30T05:03:06;1.10;99.90
47168;DHT22;32931;47.778;17.806;2024-01-30T05:05:32;1.10;99.90
47168;DHT22;32931;47.778;17.806;2024-01-30T05:07:58;1.00;99.90
47168;DHT22;32931;47.778;17.806;2024-01-30T05:10:24;1.00;99.90
47168;DHT22;32931;47.778;17.806;2024-01-30T05:12:50;1.00;99.90
47168;DHT22;32931;47.778;17.806;2024-01-30T05:15:16;1.00;99.90
47168;DHT22;32931;47.778;17.806;2024-01-30T05:17:43;1.00;99.90
47168;DHT22;32931;47.778;17.806;2024-01-30T05:20:10;1.00;99.90
47168;DHT22;32931;47.778;17.806;2024-01-30T05:22:36;1.00;99.90
47168;DHT22;32931;47.778;17.806;2024-01-30T05:25:04;1.00;99.90
47168;DHT22;32931;47.778;17.806;2024-01-30T05:27:30;1.00;99.90
47168;DHT22;32931;47.778;17.806;2024-01-30T05:29:56;1.00;99.90
47168;DHT22;32931;47.778;17.806;2024-01-30T05:32:22;1.00;99.90
47168;DHT22;32931;47.778;17.806;2024-01-30T05:34:49;1.00;99.90
47168;DHT22;32931;47.778;17.806;2024-01-30T05:37:16;1.00;99.90
47168;DHT22;32931;47.778;17.806;2024-01-30T05:39:43;1.00;99.90
47168;DHT22;32931;47.778;17.806;2024-01-30T05:42:09;1.00;99.90
47168;DHT22;32931;47.778;17.806;2024-01-30T05:44:36;1.00;99.90
47168;DHT22;32931;47.778;17.806;2024-01-30T05:47:02;1.10;99.90
47168;DHT22;32931;47.778;17.806;2024-01-30T05:49:28;1.10;99.90
47168;DHT22;32931;47.778;17.806;2024-01-30T05:51:54;1.10;99.90
47168;DHT22;32931;47.778;17.806;2024-01-30T05:54:20;1.10;99.90
47168;DHT22;32931;47.778;17.806;2024-01-30T05:56:46;1.10;99.90
47168;DHT22;32931;47.778;17.806;2024-01-30T05:59:12;1.10;99.90
47168;DHT22;32931;47.778;17.806;2024-01-30T06:01:45;1.10;99.90
47168;DHT22;32931;47.778;17.806;2024-01-30T06:04:12;1.10;99.90
47168;DHT22;32931;47.778;17.806;2024-01-30T06:06:38;1.20;99.90
47168;DHT22;32931;47.778;17.806;2024-01-30T06:09:05;1.20;99.90
47168;DHT22;32931;47.778;17.806;2024-01-30T06:11:31;1.20;99.90
47168;DHT22;32931;47.778;17.806;2024-01-30T06:13:57;1.20;99.90
47168;DHT22;32931;47.778;17.806;2024-01-30T06:16:23;1.20;99.90
47168;DHT22;32931;47.778;17.806;2024-01-30T06:18:49;1.20;99.90
47168;DHT22;32931;47.778;17.806;2024-01-30T06:21:15;1.20;99.90
47168;DHT22;32931;47.778;17.806;2024-01-30T06:23:41;1.20;99.90
47168;DHT22;32931;47.778;17.806;2024-01-30T06:26:07;1.20;99.90
47168;DHT22;32931;47.778;17.806;2024-01-30T06:28:34;1.20;99.90
47168;DHT22;32931;47.778;17.806;2024-01-30T06:31:01;1.30;99.90
47168;DHT22;32931;47.778;17.806;2024-01-30T06:33:27;1.30;99.90
47168;DHT22;32931;47.778;17.806;2024-01-30T06:35:53;1.30;99.90
47168;DHT22;32931;47.778;17.806;2024-01-30T06:38:19;1.30;99.90
47168;DHT22;32931;47.778;17.806;2024-01-30T06:40:45;1.30;99.90
47168;DHT22;32931;47.778;17.806;2024-01-30T06:43:11;1.30;99.90
47168;DHT22;32931;47.778;17.806;2024-01-30T06:45:38;1.40;99.90
47168;DHT22;32931;47.778;17.806;2024-01-30T06:48:04;1.40;99.90
47168;DHT22;32931;47.778;17.806;2024-01-30T06:50:30;1.40;99.90
47168;DHT22;32931;47.778;17.806;2024-01-30T06:52:56;1.40;99.90
47168;DHT22;32931;47.778;17.806;2024-01-30T06:55:23;1.40;99.90
47168;DHT22;32931;47.778;17.806;2024-01-30T06:57:49;1.50;99.90
47168;DHT22;32931;47.778;17.806;2024-01-30T07:00:15;1.50;99.90
47168;DHT22;32931;47.778;17.806;2024-01-30T07:02:42;1.50;99.90
47168;DHT22;32931;47.778;17.806;2024-01-30T07:05:08;1.50;99.90
47168;DHT22;32931;47.778;17.806;2024-01-30T07:07:34;1.60;99.90
47168;DHT22;32931;47.778;17.806;2024-01-30T07:10:00;1.60;99.90
47168;DHT22;32931;47.778;17.806;2024-01-30T07:12:27;1.60;99.90
47168;DHT22;32931;47.778;17.806;2024-01-30T07:14:53;1.70;99.90
47168;DHT22;32931;47.778;17.806;2024-01-30T07:17:19;1.70;99.90
47168;DHT22;32931;47.778;17.806;2024-01-30T07:19:45;1.70;99.90
47168;DHT22;32931;47.778;17.806;2024-01-30T07:22:11;1.80;99.90
47168;DHT22;32931;47.778;17.806;2024-01-30T07:24:43;1.80;99.90
47168;DHT22;32931;47.778;17.806;2024-01-30T07:27:10;1.80;99.90
47168;DHT22;32931;47.778;17.806;2024-01-30T07:29:36;1.90;99.90
47168;DHT22;32931;47.778;17.806;2024-01-30T07:32:03;1.90;99.90
47168;DHT22;32931;47.778;17.806;2024-01-30T07:34:29;1.90;99.90
47168;DHT22;32931;47.778;17.806;2024-01-30T07:36:55;2.00;99.90
47168;DHT22;32931;47.778;17.806;2024-01-30T07:39:21;2.00;99.90
47168;DHT22;32931;47.778;17.806;2024-01-30T07:41:47;2.00;99.90
47168;DHT22;32931;47.778;17.806;2024-01-30T07:44:13;2.10;99.90
47168;DHT22;32931;47.778;17.806;2024-01-30T07:46:39;2.10;99.90
47168;DHT22;32931;47.778;17.806;2024-01-30T07:49:06;2.10;99.90
47168;DHT22;32931;47.778;17.806;2024-01-30T07:51:32;2.20;99.90
47168;DHT22;32931;47.778;17.806;2024-01-30T07:53:58;2.20;99.90
47168;DHT22;32931;47.778;17.806;2024-01-30T07:56:25;2.20;99.90
47168;DHT22;32931;47.778;17.806;2024-01-30T07:58:51;2.30;99.90
47168;DHT22;32931;47.778;17.806;2024-01-30T08:01:17;2.40;99.90
47168;DHT22;32931;47.778;17.806;2024-01-30T08:03:43;2.40;99.90
47168;DHT22;32931;47.778;17.806;2024-01-30T08:06:10;2.40;99.90
47168;DHT22;32931;47.778;17.806;2024-01-30T08:08:36;2.40;99.90
47168;DHT22;32931;47.778;17.806;2024-01-30T08:11:03;2.50;99.90
47168;DHT22;32931;47.778;17.806;2024-01-30T08:13:30;2.60;99.90
47168;DHT22;32931;47.778;17.806;2024-01-30T08:15:56;2.60;99.90
47168;DHT22;32931;47.778;17.806;2024-01-30T08:18:22;2.60;99.90
47168;DHT22;32931;47.778;17.806;2024-01-30T08:20:48;2.70;99.90
47168;DHT22;32931;47.778;17.806;2024-01-30T08:23:15;2.70;99.90
47168;DHT22;32931;47.778;17.806;2024-01-30T08:25:41;2.70;99.90
47168;DHT22;32931;47.778;17.806;2024-01-30T08:28:07;2.80;99.90
47168;DHT22;32931;47.778;17.806;2024-01-30T08:30:33;2.80;99.90
47168;DHT22;32931;47.778;17.806;2024-01-30T08:32:59;2.90;99.90
47168;DHT22;32931;47.778;17.806;2024-01-30T08:35:26;2.90;99.90
47168;DHT22;32931;47.778;17.806;2024-01-30T08:37:52;3.00;99.90
47168;DHT22;32931;47.778;17.806;2024-01-30T08:40:20;3.00;99.90
47168;DHT22;32931;47.778;17.806;2024-01-30T08:42:46;3.10;99.90
47168;DHT22;32931;47.778;17.806;2024-01-30T08:45:12;3.10;99.90
47168;DHT22;32931;47.778;17.806;2024-01-30T08:47:38;3.10;99.90
47168;DHT22;32931;47.778;17.806;2024-01-30T08:50:05;3.20;99.90
47168;DHT22;32931;47.778;17.806;2024-01-30T08:52:31;3.20;99.90
47168;DHT22;32931;47.778;17.806;2024-01-30T08:54:57;3.20;99.90
47168;DHT22;32931;47.778;17.806;2024-01-30T08:57:23;3.30;99.90
47168;DHT22;32931;47.778;17.806;2024-01-30T08:59:49;3.30;99.90
47168;DHT22;32931;47.778;17.806;2024-01-30T09:02:15;3.40;99.90
47168;DHT22;32931;47.778;17.806;2024-01-30T09:04:43;3.40;99.90
47168;DHT22;32931;47.778;17.806;2024-01-30T09:07:10;3.40;99.90
47168;DHT22;32931;47.778;17.806;2024-01-30T09:09:38;3.50;99.90
47168;DHT22;32931;47.778;17.806;2024-01-30T09:12:06;3.50;99.90
47168;DHT22;32931;47.778;17.806;2024-01-30T09:14:36;3.50;99.90
47168;DHT22;32931;47.778;17.806;2024-01-30T09:17:02;3.60;99.90
47168;DHT22;32931;47.778;17.806;2024-01-30T09:19:29;3.60;99.90
47168;DHT22;32931;47.778;17.806;2024-01-30T09:21:55;3.70;99.90
47168;DHT22;32931;47.778;17.806;2024-01-30T09:24:21;3.70;99.90
47168;DHT22;32931;47.778;17.806;2024-01-30T09:26:48;3.70;99.90
47168;DHT22;32931;47.778;17.806;2024-01-30T09:29:14;3.80;99.90
47168;DHT22;32931;47.778;17.806;2024-01-30T09:31:46;3.80;99.90
47168;DHT22;32931;47.778;17.806;2024-01-30T09:34:12;3.80;99.90
47168;DHT22;32931;47.778;17.806;2024-01-30T09:36:39;3.80;99.90
47168;DHT22;32931;47.778;17.806;2024-01-30T09:39:05;3.90;99.90
47168;DHT22;32931;47.778;17.806;2024-01-30T09:41:33;3.90;99.90
47168;DHT22;32931;47.778;17.806;2024-01-30T09:44:04;4.00;99.90
47168;DHT22;32931;47.778;17.806;2024-01-30T09:46:32;4.00;99.90
47168;DHT22;32931;47.778;17.806;2024-01-30T09:49:00;4.00;99.90
47168;DHT22;32931;47.778;17.806;2024-01-30T09:51:27;4.10;99.90
47168;DHT22;32931;47.778;17.806;2024-01-30T09:53:54;4.10;99.90
47168;DHT22;32931;47.778;17.806;2024-01-30T09:56:21;4.10;99.90
47168;DHT22;32931;47.778;17.806;2024-01-30T09:58:47;4.20;99.90
47168;DHT22;32931;47.778;17.806;2024-01-30T10:01:15;4.20;99.90
47168;DHT22;32931;47.778;17.806;2024-01-30T10:03:44;4.20;99.90
47168;DHT22;32931;47.778;17.806;2024-01-30T10:06:11;4.30;99.90
47168;DHT22;32931;47.778;17.806;2024-01-30T10:08:37;4.30;99.90
47168;DHT22;32931;47.778;17.806;2024-01-30T10:11:04;4.30;99.90
47168;DHT22;32931;47.778;17.806;2024-01-30T10:13:30;4.40;99.90
47168;DHT22;32931;47.778;17.806;2024-01-30T10:15:56;4.40;99.90
47168;DHT22;32931;47.778;17.806;2024-01-30T10:18:24;4.50;99.90
47168;DHT22;32931;47.778;17.806;2024-01-30T10:20:50;4.50;99.90
47168;DHT22;32931;47.778;17.806;2024-01-30T10:23:17;4.60;99.90
47168;DHT22;32931;47.778;17.806;2024-01-30T10:25:45;4.60;99.90
47168;DHT22;32931;47.778;17.806;2024-01-30T10:28:11;4.70;99.90
47168;DHT22;32931;47.778;17.806;2024-01-30T10:30:37;4.70;99.90
47168;DHT22;32931;47.778;17.806;2024-01-30T10:33:03;4.80;99.90
47168;DHT22;32931;47.778;17.806;2024-01-30T10:35:30;4.80;99.90
47168;DHT22;32931;47.778;17.806;2024-01-30T10:37:57;4.90;99.90
47168;DHT22;32931;47.778;17.806;2024-01-30T10:40:28;4.90;99.90
47168;DHT22;32931;47.778;17.806;2024-01-30T10:42:55;4.90;99.90
47168;DHT22;32931;47.778;17.806;2024-01-30T10:45:22;5.00;99.90
47168;DHT22;32931;47.778;17.806;2024-01-30T10:47:49;5.00;99.90
47168;DHT22;32931;47.778;17.806;2024-01-30T10:50:16;5.10;99.90
47168;DHT22;32931;47.778;17.806;2024-01-30T10:52:43;5.20;99.90
47168;DHT22;32931;47.778;17.806;2024-01-30T10:55:10;5.20;99.90
47168;DHT22;32931;47.778;17.806;2024-01-30T10:57:37;5.20;99.90
47168;DHT22;32931;47.778;17.806;2024-01-30T11:00:05;5.30;99.90
47168;DHT22;32931;47.778;17.806;2024-01-30T11:02:41;5.30;99.90
47168;DHT22;32931;47.778;17.806;2024-01-30T11:05:08;5.40;99.90
47168;DHT22;32931;47.778;17.806;2024-01-30T11:07:34;5.40;99.90
47168;DHT22;32931;47.778;17.806;2024-01-30T11:10:04;5.50;99.90
47168;DHT22;32931;47.778;17.806;2024-01-30T11:12:37;5.50;99.90
47168;DHT22;32931;47.778;17.806;2024-01-30T11:15:07;5.60;99.90
47168;DHT22;32931;47.778;17.806;2024-01-30T11:20:20;5.70;99.90
47168;DHT22;32931;47.778;17.806;2024-01-30T11:22:47;5.70;99.90
47168;DHT22;32931;47.778;17.806;2024-01-30T11:25:15;5.80;99.90
47168;DHT22;32931;47.778;17.806;2024-01-30T11:27:42;5.90;99.90
47168;DHT22;32931;47.778;17.806;2024-01-30T11:30:09;5.90;99.90
47168;DHT22;32931;47.778;17.806;2024-01-30T11:32:35;6.00;99.90
47168;DHT22;32931;47.778;17.806;2024-01-30T11:35:05;6.00;99.90
47168;DHT22;32931;47.778;17.806;2024-01-30T11:37:32;6.10;99.90
47168;DHT22;32931;47.778;17.806;2024-01-30T11:40:02;6.10;99.90
47168;DHT22;32931;47.778;17.806;2024-01-30T11:42:30;6.20;99.90
47168;DHT22;32931;47.778;17.806;2024-01-30T11:44:56;6.20;99.90
47168;DHT22;32931;47.778;17.806;2024-01-30T11:47:22;6.30;99.90
47168;DHT22;32931;47.778;17.806;2024-01-30T11:49:49;6.30;99.90
47168;DHT22;32931;47.778;17.806;2024-01-30T11:52:15;6.40;99.90
47168;DHT22;32931;47.778;17.806;2024-01-30T11:54:41;6.40;99.90
47168;DHT22;32931;47.778;17.806;2024-01-30T11:57:09;6.40;99.90
47168;DHT22;32931;47.778;17.806;2024-01-30T11:59:35;6.40;99.90
47168;DHT22;32931;47.778;17.806;2024-01-30T12:02:01;6.50;99.90
47168;DHT22;32931;47.778;17.806;2024-01-30T12:04:28;6.50;99.90
47168;DHT22;32931;47.778;17.806;2024-01-30T12:06:55;6.50;99.90
47168;DHT22;32931;47.778;17.806;2024-01-30T12:09:22;6.50;99.90
47168;DHT22;32931;47.778;17.806;2024-01-30T12:11:49;6.60;99.90
47168;DHT22;32931;47.778;17.806;2024-01-30T12:14:18;6.60;99.90
47168;DHT22;32931;47.778;17.806;2024-01-30T12:16:48;6.60;99.90
47168;DHT22;32931;47.778;17.806;2024-01-30T12:19:22;6.60;99.90
47168;DHT22;32931;47.778;17.806;2024-01-30T12:21:53;6.70;99.90
47168;DHT22;32931;47.778;17.806;2024-01-30T12:24:19;6.70;99.90
47168;DHT22;32931;47.778;17.806;2024-01-30T12:26:45;6.60;99.90
47168;DHT22;32931;47.778;17.806;2024-01-30T12:29:11;6.70;99.90
47168;DHT22;32931;47.778;17.806;2024-01-30T12:31:42;6.70;99.90
47168;DHT22;32931;47.778;17.806;2024-01-30T12:34:09;6.70;99.90
47168;DHT22;32931;47.778;17.806;2024-01-30T12:36:35;6.80;99.90
47168;DHT22;32931;47.778;17.806;2024-01-30T12:39:02;6.80;99.90
47168;DHT22;32931;47.778;17.806;2024-01-30T12:41:28;6.80;99.90
47168;DHT22;32931;47.778;17.806;2024-01-30T12:43:57;6.80;99.90
47168;DHT22;32931;47.778;17.806;2024-01-30T12:46:29;6.80;99.90
47168;DHT22;32931;47.778;17.806;2024-01-30T12:48:55;6.90;99.90
47168;DHT22;32931;47.778;17.806;2024-01-30T12:51:22;6.90;99.90
47168;DHT22;32931;47.778;17.806;2024-01-30T12:53:48;6.90;99.90
47168;DHT22;32931;47.778;17.806;2024-01-30T12:56:14;6.90;99.90
47168;DHT22;32931;47.778;17.806;2024-01-30T12:58:40;6.90;99.90
47168;DHT22;32931;47.778;17.806;2024-01-30T13:01:09;6.90;99.90
47168;DHT22;32931;47.778;17.806;2024-01-30T13:03:35;6.90;99.90
47168;DHT22;32931;47.778;17.806;2024-01-30T13:06:02;6.90;99.90
47168;DHT22;32931;47.778;17.806;2024-01-30T13:08:28;6.90;99.90
47168;DHT22;32931;47.778;17.806;2024-01-30T13:10:55;6.90;99.90
47168;DHT22;32931;47.778;17.806;2024-01-30T13:13:21;6.90;99.90
47168;DHT22;32931;47.778;17.806;2024-01-30T13:15:48;6.90;99.90
47168;DHT22;32931;47.778;17.806;2024-01-30T13:18:14;6.90;99.90
47168;DHT22;32931;47.778;17.806;2024-01-30T13:20:40;6.90;99.90
47168;DHT22;32931;47.778;17.806;2024-01-30T13:23:06;6.90;99.90
47168;DHT22;32931;47.778;17.806;2024-01-30T13:25:32;6.90;99.90
47168;DHT22;32931;47.778;17.806;2024-01-30T13:27:58;7.00;99.90
47168;DHT22;32931;47.778;17.806;2024-01-30T13:30:25;7.00;99.90
47168;DHT22;32931;47.778;17.806;2024-01-30T13:32:51;7.00;99.90
47168;DHT22;32931;47.778;17.806;2024-01-30T13:35:17;7.00;99.90
47168;DHT22;32931;47.778;17.806;2024-01-30T13:37:43;7.00;99.90
47168;DHT22;32931;47.778;17.806;2024-01-30T13:40:10;7.00;99.90
47168;DHT22;32931;47.778;17.806;2024-01-30T13:42:36;7.00;99.90
47168;DHT22;32931;47.778;17.806;2024-01-30T13:45:03;7.00;99.90
47168;DHT22;32931;47.778;17.806;2024-01-30T13:47:29;7.00;99.90
47168;DHT22;32931;47.778;17.806;2024-01-30T13:49:55;7.00;99.90
47168;DHT22;32931;47.778;17.806;2024-01-30T13:52:21;7.00;99.90
47168;DHT22;32931;47.778;17.806;2024-01-30T13:54:47;7.00;99.90
47168;DHT22;32931;47.778;17.806;2024-01-30T13:57:13;7.00;99.90
47168;DHT22;32931;47.778;17.806;2024-01-30T13:59:39;7.00;99.90
47168;DHT22;32931;47.778;17.806;2024-01-30T14:02:06;7.00;99.90
47168;DHT22;32931;47.778;17.806;2024-01-30T14:04:34;7.00;99.90
47168;DHT22;32931;47.778;17.806;2024-01-30T14:07:00;6.90;99.90
47168;DHT22;32931;47.778;17.806;2024-01-30T14:09:26;6.90;99.90
47168;DHT22;32931;47.778;17.806;2024-01-30T14:11:52;6.90;99.90
47168;DHT22;32931;47.778;17.806;2024-01-30T14:14:18;6.90;99.90
47168;DHT22;32931;47.778;17.806;2024-01-30T14:16:45;6.90;99.90
47168;DHT22;32931;47.778;17.806;2024-01-30T14:19:11;6.90;99.90
47168;DHT22;32931;47.778;17.806;2024-01-30T14:21:37;6.90;99.90
47168;DHT22;32931;47.778;17.806;2024-01-30T14:24:04;6.90;99.90
47168;DHT22;32931;47.778;17.806;2024-01-30T14:26:30;7.00;99.90
47168;DHT22;32931;47.778;17.806;2024-01-30T14:28:56;6.90;99.90
47168;DHT22;32931;47.778;17.806;2024-01-30T14:31:22;6.90;99.90
47168;DHT22;32931;47.778;17.806;2024-01-30T14:33:50;6.90;99.90
47168;DHT22;32931;47.778;17.806;2024-01-30T14:36:16;6.90;99.90
47168;DHT22;32931;47.778;17.806;2024-01-30T14:38:43;6.90;99.90
47168;DHT22;32931;47.778;17.806;2024-01-30T14:41:10;6.90;99.90
47168;DHT22;32931;47.778;17.806;2024-01-30T14:43:36;6.80;99.90
47168;DHT22;32931;47.778;17.806;2024-01-30T14:46:03;6.80;99.90
47168;DHT22;32931;47.778;17.806;2024-01-30T14:48:32;6.80;99.90
47168;DHT22;32931;47.778;17.806;2024-01-30T14:50:59;6.70;99.90
47168;DHT22;32931;47.778;17.806;2024-01-30T14:53:25;6.70;99.90
47168;DHT22;32931;47.778;17.806;2024-01-30T14:55:51;6.70;99.90
47168;DHT22;32931;47.778;17.806;2024-01-30T14:58:17;6.60;99.90
47168;DHT22;32931;47.778;17.806;2024-01-30T15:00:43;6.60;99.90
47168;DHT22;32931;47.778;17.806;2024-01-30T15:03:10;6.50;99.90
47168;DHT22;32931;47.778;17.806;2024-01-30T15:05:36;6.50;99.90
47168;DHT22;32931;47.778;17.806;2024-01-30T15:08:02;6.40;99.90
47168;DHT22;32931;47.778;17.806;2024-01-30T15:10:28;6.40;99.90
47168;DHT22;32931;47.778;17.806;2024-01-30T15:12:54;6.30;99.90
47168;DHT22;32931;47.778;17.806;2024-01-30T15:15:20;6.30;99.90
47168;DHT22;32931;47.778;17.806;2024-01-30T15:17:46;6.20;99.90
47168;DHT22;32931;47.778;17.806;2024-01-30T15:20:13;6.20;99.90
47168;DHT22;32931;47.778;17.806;2024-01-30T15:22:39;6.10;99.90
47168;DHT22;32931;47.778;17.806;2024-01-30T15:25:06;6.10;99.90
47168;DHT22;32931;47.778;17.806;2024-01-30T15:27:32;6.00;99.90